createdAt,value
2022-12-22T00:00:16.552Z,2.07
2022-12-22T00:03:02.199Z,2.78
2022-12-22T00:05:47.500Z,3.30
2022-12-22T00:08:33.120Z,2.75
2022-12-22T00:11:20.223Z,2.42
2022-12-22T00:14:05.707Z,2.83
2022-12-22T00:16:56.823Z,2.70
2022-12-22T00:19:42.179Z,2.10
2022-12-22T00:22:44.232Z,2.50
2022-12-22T00:25:35.211Z,1.95
2022-12-22T00:28:31.315Z,2.00
2022-12-22T00:31:16.703Z,1.50
2022-12-22T00:34:02.572Z,1.97
2022-12-22T00:36:48.042Z,1.67
2022-12-22T00:39:33.627Z,1.80
2022-12-22T00:42:22.554Z,1.63
2022-12-22T00:45:08.166Z,1.70
2022-12-22T00:47:53.614Z,1.60
2022-12-22T00:50:48.326Z,1.65
2022-12-22T00:53:35.571Z,1.60
2022-12-22T00:56:24.521Z,1.27
2022-12-22T00:59:13.023Z,1.30
2022-12-22T01:01:58.590Z,1.50
2022-12-22T01:04:43.902Z,1.35
2022-12-22T01:07:33.551Z,1.30
2022-12-22T01:10:19.705Z,0.98
2022-12-22T01:13:05.163Z,1.15
2022-12-22T01:15:50.667Z,1.20
2022-12-22T01:18:35.922Z,1.15
2022-12-22T01:21:23.179Z,1.02
2022-12-22T01:24:08.572Z,0.90
2022-12-22T01:26:54.137Z,0.95
2022-12-22T01:29:39.691Z,0.22
2022-12-22T01:32:27.780Z,1.02
2022-12-22T01:35:13.232Z,1.00
2022-12-22T01:37:58.656Z,1.20
2022-12-22T01:40:44.788Z,1.00
2022-12-22T01:43:47.216Z,1.10
2022-12-22T01:46:55.026Z,1.23
2022-12-22T01:49:49.364Z,0.95
2022-12-22T01:52:38.912Z,1.20
2022-12-22T01:55:32.137Z,1.40
2022-12-22T01:58:17.518Z,1.50
2022-12-22T02:01:05.582Z,1.27
2022-12-22T02:03:50.989Z,1.33
2022-12-22T02:06:57.952Z,0.90
2022-12-22T02:10:15.825Z,1.40
2022-12-22T02:13:28.692Z,1.10
2022-12-22T02:16:33.615Z,1.20
2022-12-22T02:19:29.660Z,1.08
2022-12-22T02:22:38.809Z,1.20
2022-12-22T02:25:47.325Z,0.57
2022-12-22T02:28:34.388Z,0.95
2022-12-22T02:31:19.656Z,1.15
2022-12-22T02:34:04.868Z,1.10
2022-12-22T02:37:15.805Z,1.13
2022-12-22T02:40:19.195Z,0.80
2022-12-22T02:43:22.431Z,0.77
2022-12-22T02:46:29.812Z,0.93
2022-12-22T02:49:26.816Z,0.80
2022-12-22T02:52:24.925Z,0.70
2022-12-22T02:55:11.174Z,0.80
2022-12-22T02:57:56.707Z,0.63
2022-12-22T03:00:42.231Z,0.95
2022-12-22T03:03:28.046Z,0.90
2022-12-22T03:06:13.699Z,0.95
2022-12-22T03:08:59.332Z,0.93
2022-12-22T03:11:44.846Z,0.60
2022-12-22T03:14:29.964Z,0.93
2022-12-22T03:17:15.376Z,0.90
2022-12-22T03:20:00.768Z,0.80
2022-12-22T03:22:47.684Z,0.77
2022-12-22T03:25:33.405Z,0.50
2022-12-22T03:28:09.004Z,0.80
2022-12-22T03:30:36.690Z,0.60
2022-12-22T03:33:03.622Z,0.60
2022-12-22T03:35:30.526Z,0.50
2022-12-22T03:37:57.376Z,0.60
2022-12-22T03:40:24.322Z,0.45
2022-12-22T03:43:09.361Z,0.60
2022-12-22T03:45:54.959Z,0.50
2022-12-22T03:48:21.838Z,0.50
2022-12-22T03:50:48.674Z,0.60
2022-12-22T03:53:15.488Z,0.47
2022-12-22T03:55:42.313Z,0.45
2022-12-22T03:58:09.138Z,0.60
2022-12-22T04:00:35.990Z,0.50
2022-12-22T04:03:03.092Z,0.43
2022-12-22T04:05:29.999Z,0.40
2022-12-22T04:07:56.894Z,0.38
2022-12-22T04:10:42.040Z,0.30
2022-12-22T04:13:08.881Z,0.30
2022-12-22T04:15:35.713Z,0.60
2022-12-22T04:18:02.577Z,0.20
2022-12-22T04:20:29.418Z,0.30
2022-12-22T04:22:57.043Z,0.60
2022-12-22T04:25:25.956Z,0.25
2022-12-22T04:27:52.868Z,0.20
2022-12-22T04:30:19.915Z,0.30
2022-12-22T04:32:46.847Z,0.20
2022-12-22T04:35:13.730Z,0.20
2022-12-22T04:37:40.587Z,0.22
2022-12-22T04:40:08.177Z,0.20
2022-12-22T04:42:35.027Z,0.13
2022-12-22T04:45:01.915Z,0.20
2022-12-22T04:47:28.732Z,0.25
2022-12-22T04:49:55.774Z,0.40
2022-12-22T04:52:22.782Z,0.30
2022-12-22T04:54:49.681Z,0.30
2022-12-22T04:57:16.653Z,0.20
2022-12-22T04:59:43.500Z,0.20
2022-12-22T05:02:10.458Z,0.30
2022-12-22T05:04:37.377Z,0.30
2022-12-22T05:07:04.739Z,0.20
2022-12-22T05:09:32.258Z,0.22
2022-12-22T05:11:59.117Z,0.40
2022-12-22T05:14:26.258Z,0.40
2022-12-22T05:16:53.109Z,0.50
2022-12-22T05:19:19.974Z,0.50
2022-12-22T05:21:46.835Z,0.73
2022-12-22T05:24:13.809Z,0.30
2022-12-22T05:26:40.596Z,0.85
2022-12-22T05:29:07.435Z,0.60
2022-12-22T05:31:36.597Z,0.70
2022-12-22T05:34:05.429Z,0.77
2022-12-22T05:36:32.204Z,0.70
2022-12-22T05:38:59.067Z,0.73
2022-12-22T05:41:25.963Z,0.70
2022-12-22T05:43:52.805Z,0.85
2022-12-22T05:46:19.667Z,0.68
2022-12-22T05:48:46.476Z,0.70
2022-12-22T05:51:13.321Z,0.68
2022-12-22T05:53:40.742Z,0.60
2022-12-22T05:56:08.444Z,0.85
2022-12-22T05:58:38.968Z,0.60
2022-12-22T06:01:06.580Z,0.63
2022-12-22T06:03:33.861Z,0.52
2022-12-22T06:06:00.932Z,0.65
2022-12-22T06:08:28.211Z,0.40
2022-12-22T06:10:58.082Z,0.43
2022-12-22T06:13:26.692Z,0.43
2022-12-22T06:15:53.810Z,0.40
2022-12-22T06:18:20.777Z,0.40
2022-12-22T06:20:48.009Z,0.40
2022-12-22T06:23:15.528Z,0.30
2022-12-22T06:25:42.396Z,0.40
2022-12-22T06:28:09.221Z,0.40
2022-12-22T06:30:36.025Z,0.30
2022-12-22T06:33:03.721Z,0.30
2022-12-22T06:35:30.601Z,0.30
2022-12-22T06:37:57.496Z,0.47
2022-12-22T06:40:24.352Z,0.38
2022-12-22T06:43:10.138Z,0.38
2022-12-22T06:45:41.487Z,0.50
2022-12-22T06:48:11.399Z,0.20
2022-12-22T06:50:38.506Z,0.30
2022-12-22T06:53:07.726Z,0.30
2022-12-22T06:55:35.198Z,0.20
2022-12-22T06:58:02.313Z,0.40
2022-12-22T07:00:29.813Z,0.20
2022-12-22T07:02:56.796Z,0.20
2022-12-22T07:05:24.028Z,0.30
2022-12-22T07:07:51.965Z,0.30
2022-12-22T07:10:19.156Z,0.30
2022-12-22T07:12:45.967Z,0.30
2022-12-22T07:15:12.775Z,0.40
2022-12-22T07:17:41.631Z,0.30
2022-12-22T07:20:09.394Z,0.35
2022-12-22T07:22:36.336Z,0.50
2022-12-22T07:25:03.210Z,0.30
2022-12-22T07:27:30.077Z,0.40
2022-12-22T07:29:56.909Z,0.40
2022-12-22T07:32:23.739Z,0.40
2022-12-22T07:34:50.576Z,0.30
2022-12-22T07:37:17.350Z,0.30
2022-12-22T07:39:44.197Z,0.30
2022-12-22T07:42:30.794Z,0.30
2022-12-22T07:44:57.820Z,0.25
2022-12-22T07:47:27.262Z,0.30
2022-12-22T07:50:15.357Z,0.47
2022-12-22T07:52:42.196Z,0.47
2022-12-22T07:55:09.545Z,0.50
2022-12-22T07:57:36.451Z,0.57
2022-12-22T08:00:04.125Z,0.50
2022-12-22T08:02:35.314Z,0.40
2022-12-22T08:05:07.118Z,0.63
2022-12-22T08:07:34.267Z,0.57
2022-12-22T08:10:01.389Z,0.60
2022-12-22T08:12:29.742Z,0.60
2022-12-22T08:14:56.788Z,0.57
2022-12-22T08:17:23.855Z,0.70
2022-12-22T08:19:50.681Z,1.35
2022-12-22T08:22:17.593Z,1.25
2022-12-22T08:24:44.502Z,1.00
2022-12-22T08:27:25.764Z,1.10
2022-12-22T08:29:58.835Z,1.35
2022-12-22T08:32:25.875Z,1.50
2022-12-22T08:34:54.239Z,2.03
2022-12-22T08:37:27.474Z,1.70
2022-12-22T08:40:04.736Z,1.70
2022-12-22T08:42:33.785Z,1.73
2022-12-22T08:45:01.286Z,1.67
2022-12-22T08:47:28.374Z,2.03
2022-12-22T08:49:55.665Z,2.25
2022-12-22T08:52:22.730Z,2.40
2022-12-22T08:54:49.807Z,1.80
2022-12-22T08:57:17.001Z,2.45
2022-12-22T08:59:43.937Z,1.63
2022-12-22T09:02:11.392Z,2.08
2022-12-22T09:04:38.431Z,2.17
2022-12-22T09:07:05.975Z,2.25
2022-12-22T09:09:35.347Z,2.20
2022-12-22T09:12:03.097Z,2.00
2022-12-22T09:14:30.808Z,1.48
2022-12-22T09:16:57.924Z,1.70
2022-12-22T09:19:25.114Z,1.40
2022-12-22T09:21:52.075Z,1.45
2022-12-22T09:24:19.481Z,1.65
2022-12-22T09:26:46.785Z,1.30
2022-12-22T09:29:17.547Z,1.05
2022-12-22T09:31:45.122Z,1.80
2022-12-22T09:34:17.643Z,1.40
2022-12-22T09:36:46.600Z,2.10
2022-12-22T09:39:14.347Z,1.65
2022-12-22T09:41:55.430Z,2.03
2022-12-22T09:44:45.974Z,1.83
2022-12-22T09:47:31.775Z,1.95
2022-12-22T09:49:59.398Z,2.35
2022-12-22T09:52:35.408Z,2.00
2022-12-22T09:55:25.204Z,2.30
2022-12-22T09:57:55.171Z,2.22
2022-12-22T10:00:28.406Z,2.38
2022-12-22T10:02:55.320Z,2.40
2022-12-22T10:05:47.273Z,2.50
2022-12-22T10:08:29.160Z,2.63
2022-12-22T10:10:57.268Z,2.50
2022-12-22T10:13:24.181Z,2.28
2022-12-22T10:15:53.230Z,2.90
2022-12-22T10:18:29.460Z,2.80
2022-12-22T10:21:15.634Z,2.80
2022-12-22T10:23:48.828Z,2.45
2022-12-22T10:26:28.719Z,2.58
2022-12-22T10:29:11.640Z,2.55
2022-12-22T10:32:13.080Z,2.60
2022-12-22T10:35:04.337Z,2.88
2022-12-22T10:37:38.671Z,2.60
2022-12-22T10:40:19.150Z,2.10
2022-12-22T10:42:53.760Z,2.83
2022-12-22T10:45:27.611Z,2.70
2022-12-22T10:47:58.043Z,2.35
2022-12-22T10:50:24.977Z,2.85
2022-12-22T10:52:58.106Z,2.78
2022-12-22T10:55:30.263Z,3.13
2022-12-22T10:58:19.180Z,3.15
2022-12-22T11:01:04.524Z,3.53
2022-12-22T11:03:32.743Z,3.00
2022-12-22T11:06:01.689Z,2.97
2022-12-22T11:08:31.992Z,3.78
2022-12-22T11:11:09.858Z,3.35
2022-12-22T11:14:01.884Z,3.95
2022-12-22T11:17:01.301Z,4.22
2022-12-22T11:20:05.495Z,4.05
2022-12-22T11:23:08.780Z,4.18
2022-12-22T11:26:04.049Z,5.13
2022-12-22T11:28:49.268Z,5.75
2022-12-22T11:31:33.503Z,6.03
2022-12-22T11:34:35.300Z,6.07
2022-12-22T11:37:21.733Z,6.03
2022-12-22T11:39:59.156Z,7.07
2022-12-22T11:43:04.682Z,5.57
2022-12-22T11:46:31.187Z,6.00
2022-12-22T11:49:36.161Z,5.53
2022-12-22T11:52:33.644Z,5.55
2022-12-22T11:55:34.586Z,5.65
2022-12-22T11:58:26.314Z,5.93
2022-12-22T12:01:31.291Z,6.53
2022-12-22T12:04:23.822Z,6.03
2022-12-22T12:07:20.521Z,6.43
2022-12-22T12:10:23.273Z,6.80
2022-12-22T12:13:33.160Z,6.80
2022-12-22T12:16:24.532Z,7.15
2022-12-22T12:19:12.949Z,7.05
2022-12-22T12:21:51.973Z,6.70
2022-12-22T12:24:21.633Z,7.15
2022-12-22T12:27:13.094Z,7.97
2022-12-22T12:30:37.065Z,7.78
2022-12-22T12:33:07.435Z,7.07
2022-12-22T12:36:01.424Z,7.97
2022-12-22T12:39:13.822Z,7.18
2022-12-22T12:41:46.316Z,7.93
2022-12-22T12:44:17.815Z,8.10
2022-12-22T12:46:50.993Z,8.25
2022-12-22T12:49:36.513Z,7.60
2022-12-22T12:52:12.065Z,7.95
2022-12-22T12:54:49.516Z,7.85
2022-12-22T12:57:42.183Z,6.60
2022-12-22T13:00:31.944Z,7.15
2022-12-22T13:03:52.955Z,7.20
2022-12-22T13:06:53.503Z,7.35
2022-12-22T13:12:40.127Z,7.63
2022-12-22T13:15:34.415Z,7.80
2022-12-22T13:18:09.078Z,9.88
2022-12-22T13:20:37.743Z,7.82
2022-12-22T13:23:14.576Z,8.55
2022-12-22T13:25:52.972Z,7.70
2022-12-22T13:28:23.870Z,7.63
2022-12-22T13:31:00.555Z,6.45
2022-12-22T13:33:36.809Z,7.15
2022-12-22T13:36:06.688Z,6.00
2022-12-22T13:38:37.537Z,5.78
2022-12-22T13:41:32.858Z,5.45
2022-12-22T13:44:29.129Z,5.30
2022-12-22T13:47:03.503Z,5.30
2022-12-22T13:50:06.584Z,5.63
2022-12-22T13:52:21.234Z,5.82
2022-12-22T13:54:48.370Z,6.35
2022-12-22T13:57:21.070Z,5.78
2022-12-22T13:59:51.546Z,6.47
2022-12-22T14:02:21.376Z,6.00
2022-12-22T14:05:10.429Z,6.40
2022-12-22T14:07:37.872Z,6.83
2022-12-22T14:10:05.458Z,6.67
2022-12-22T14:12:45.029Z,6.68
2022-12-22T14:15:20.696Z,7.00
2022-12-22T14:17:52.953Z,8.43
2022-12-22T14:20:35.585Z,7.35
2022-12-22T14:23:12.590Z,7.30
2022-12-22T14:25:45.302Z,6.93
2022-12-22T14:28:50.565Z,7.38
2022-12-22T14:31:19.057Z,7.55
2022-12-22T14:34:24.767Z,7.47
2022-12-22T14:36:54.042Z,7.30
2022-12-22T14:39:26.141Z,7.88
2022-12-22T14:42:11.182Z,8.45
2022-12-22T14:44:47.284Z,10.07
2022-12-22T14:47:17.887Z,8.60
2022-12-22T14:50:24.610Z,8.98
2022-12-22T14:52:59.060Z,9.88
2022-12-22T14:55:40.917Z,8.00
2022-12-22T14:58:20.428Z,6.80
2022-12-22T15:01:16.237Z,13.27
2022-12-22T15:03:45.837Z,11.40
2022-12-22T15:06:28.269Z,10.88
2022-12-22T15:09:15.298Z,9.60
2022-12-22T15:11:51.503Z,10.33
2022-12-22T15:14:38.308Z,9.03
2022-12-22T15:17:19.428Z,9.10
2022-12-22T15:19:46.305Z,7.87
2022-12-22T15:22:13.152Z,7.70
2022-12-22T15:24:40.351Z,8.20
2022-12-22T15:27:07.145Z,8.35
2022-12-22T15:29:34.129Z,9.00
2022-12-22T15:32:01.921Z,10.37
2022-12-22T15:34:32.418Z,9.37
2022-12-22T15:36:59.389Z,8.63
2022-12-22T15:39:26.505Z,8.70
2022-12-22T15:41:54.604Z,9.13
2022-12-22T15:44:22.362Z,9.27
2022-12-22T15:46:56.872Z,8.63
2022-12-22T15:49:27.669Z,7.97
2022-12-22T15:52:00.954Z,6.60
2022-12-22T15:54:31.018Z,6.07
2022-12-22T15:56:57.902Z,7.17
2022-12-22T15:59:27.432Z,7.03
2022-12-22T16:02:01.380Z,6.57
2022-12-22T16:04:29.853Z,6.73
2022-12-22T16:06:58.952Z,7.27
2022-12-22T16:09:32.571Z,7.10
2022-12-22T16:11:59.460Z,7.03
2022-12-22T16:14:26.405Z,8.90
2022-12-22T16:16:53.203Z,8.63
2022-12-22T16:19:20.077Z,10.20
2022-12-22T16:21:51.977Z,10.80
2022-12-22T16:24:33.122Z,12.40
2022-12-22T16:27:01.282Z,12.87
2022-12-22T16:29:28.377Z,13.40
2022-12-22T16:32:24.691Z,13.00
2022-12-22T16:34:52.763Z,12.27
2022-12-22T16:37:19.695Z,11.70
2022-12-22T16:39:46.996Z,12.87
2022-12-22T16:45:15.545Z,15.90
2022-12-22T16:47:42.497Z,12.03
2022-12-22T16:50:19.876Z,11.33
2022-12-22T16:52:48.748Z,18.03
2022-12-22T16:55:21.888Z,15.50
2022-12-22T16:57:48.945Z,16.53
2022-12-22T17:00:26.667Z,14.97
2022-12-22T17:03:00.733Z,13.33
2022-12-22T17:05:43.809Z,16.10
2022-12-22T17:08:27.154Z,14.57
2022-12-22T17:10:57.825Z,12.40
2022-12-22T17:13:25.891Z,7.60
2022-12-22T17:15:53.045Z,7.37
2022-12-22T17:18:24.303Z,6.83
2022-12-22T17:20:56.780Z,7.30
2022-12-22T17:23:39.674Z,8.97
2022-12-22T17:26:11.594Z,6.47
2022-12-22T17:28:39.956Z,7.60
2022-12-22T17:31:07.148Z,6.97
2022-12-22T17:33:34.159Z,6.50
2022-12-22T17:36:02.382Z,6.07
2022-12-22T17:38:29.942Z,7.07
2022-12-22T17:40:57.622Z,6.60
2022-12-22T17:43:24.664Z,6.03
2022-12-22T17:45:52.330Z,5.40
2022-12-22T17:48:19.217Z,7.83
2022-12-22T17:50:50.235Z,6.20
2022-12-22T17:53:21.220Z,6.57
2022-12-22T17:58:35.648Z,6.40
2022-12-22T18:01:02.477Z,5.90
2022-12-22T18:03:29.459Z,5.83
2022-12-22T18:05:56.427Z,3.23
2022-12-22T18:08:23.569Z,5.07
2022-12-22T18:10:50.499Z,4.73
2022-12-22T18:13:25.742Z,4.35
2022-12-22T18:15:53.437Z,3.23
2022-12-22T18:18:20.943Z,2.83
2022-12-22T18:21:06.586Z,3.90
2022-12-22T18:23:37.182Z,3.43
2022-12-22T18:26:09.591Z,3.30
2022-12-22T18:28:36.959Z,3.00
2022-12-22T18:31:03.906Z,2.80
2022-12-22T18:33:30.831Z,1.80
2022-12-22T18:35:59.430Z,3.33
2022-12-22T18:38:30.546Z,3.08
2022-12-22T18:40:57.435Z,3.33
2022-12-22T18:43:24.661Z,2.97
2022-12-22T18:45:51.614Z,2.90
2022-12-22T18:48:18.464Z,3.15
2022-12-22T18:50:45.405Z,3.20
2022-12-22T18:53:31.662Z,3.10
2022-12-22T18:55:59.522Z,3.80
2022-12-22T18:58:26.954Z,3.38
2022-12-22T19:00:55.587Z,3.63
2022-12-22T19:03:29.251Z,3.95
2022-12-22T19:05:57.077Z,3.47
2022-12-22T19:08:27.676Z,3.80
2022-12-22T19:11:00.343Z,3.92
2022-12-22T19:13:38.989Z,3.03
2022-12-22T19:16:07.381Z,3.93
2022-12-22T19:18:34.320Z,3.47
2022-12-22T19:21:01.173Z,3.50
2022-12-22T19:23:28.008Z,3.47
2022-12-22T19:26:08.450Z,3.40
2022-12-22T19:28:40.557Z,4.10
2022-12-22T19:31:10.218Z,3.80
2022-12-22T19:33:41.431Z,4.50
2022-12-22T19:36:25.482Z,3.60
2022-12-22T19:39:05.565Z,3.17
2022-12-22T19:41:47.381Z,3.63
2022-12-22T19:44:30.216Z,3.38
2022-12-22T19:46:59.834Z,3.45
2022-12-22T19:49:28.823Z,3.70
2022-12-22T19:51:56.776Z,3.42
2022-12-22T19:54:24.086Z,3.43
2022-12-22T19:56:56.458Z,4.30
2022-12-22T19:59:40.003Z,3.90
2022-12-22T20:02:27.089Z,3.42
2022-12-22T20:04:55.917Z,2.83
2022-12-22T20:07:25.820Z,3.00
2022-12-22T20:09:53.373Z,4.15
2022-12-22T20:12:37.714Z,3.28
2022-12-22T20:15:18.821Z,3.00
2022-12-22T20:17:47.782Z,3.13
2022-12-22T20:20:20.932Z,2.73
2022-12-22T20:22:55.352Z,2.80
2022-12-22T20:25:27.556Z,3.30
2022-12-22T20:27:56.063Z,2.67
2022-12-22T20:30:29.071Z,2.87
2022-12-22T20:32:56.779Z,3.17
2022-12-22T20:35:24.285Z,3.42
2022-12-22T20:37:51.119Z,3.85
2022-12-22T20:40:29.939Z,3.42
2022-12-22T20:42:58.330Z,3.70
2022-12-22T20:45:30.765Z,4.00
2022-12-22T20:47:59.944Z,3.60
2022-12-22T20:50:32.260Z,3.35
2022-12-22T20:52:59.408Z,3.90
2022-12-22T20:55:28.376Z,3.38
2022-12-22T20:57:55.464Z,3.40
2022-12-22T21:00:29.206Z,3.58
2022-12-22T21:02:56.375Z,4.10
2022-12-22T21:05:23.287Z,5.20
2022-12-22T21:07:50.391Z,4.10
2022-12-22T21:10:28.532Z,4.13
2022-12-22T21:12:55.574Z,3.70
2022-12-22T21:15:28.153Z,4.35
2022-12-22T21:17:58.661Z,3.87
2022-12-22T21:20:29.036Z,3.67
2022-12-22T21:22:55.883Z,3.77
2022-12-22T21:25:24.321Z,3.80
2022-12-22T21:27:52.674Z,2.10
2022-12-22T21:30:24.697Z,3.67
2022-12-22T21:32:52.896Z,3.63
2022-12-22T21:35:26.083Z,3.77
2022-12-22T21:37:54.122Z,3.85
2022-12-22T21:40:29.150Z,4.00
2022-12-22T21:42:57.717Z,3.83
2022-12-22T21:45:29.839Z,4.03
2022-12-22T21:48:00.959Z,5.30
2022-12-22T21:50:35.242Z,3.40
2022-12-22T21:53:02.902Z,4.47
2022-12-22T21:55:37.410Z,4.20
2022-12-22T21:58:06.360Z,4.40
2022-12-22T22:00:34.660Z,4.68
2022-12-22T22:03:03.817Z,4.00
2022-12-22T22:05:39.987Z,3.83
2022-12-22T22:08:11.035Z,4.53
2022-12-22T22:10:43.617Z,3.60
2022-12-22T22:13:15.568Z,3.40
2022-12-22T22:15:43.219Z,3.10
2022-12-22T22:18:18.305Z,3.63
2022-12-22T22:20:46.973Z,3.55
2022-12-22T22:23:15.208Z,3.72
2022-12-22T22:25:42.076Z,3.55
2022-12-22T22:28:11.438Z,3.05
2022-12-22T22:30:41.911Z,4.07
2022-12-22T22:33:10.403Z,3.30
2022-12-22T22:35:41.093Z,3.70
2022-12-22T22:38:12.880Z,3.40
2022-12-22T22:40:43.195Z,3.58
2022-12-22T22:43:10.126Z,3.90
2022-12-22T22:45:43.205Z,3.55
2022-12-22T22:48:20.702Z,3.17
2022-12-22T22:50:47.560Z,3.40
2022-12-22T22:53:14.545Z,3.28
2022-12-22T22:55:41.352Z,2.95
2022-12-22T22:58:08.747Z,2.90
2022-12-22T23:00:35.690Z,3.30
2022-12-22T23:03:02.634Z,3.30
2022-12-22T23:05:29.652Z,2.87
2022-12-22T23:07:56.525Z,2.58
2022-12-22T23:10:23.411Z,2.90
2022-12-22T23:12:50.348Z,2.72
2022-12-22T23:15:17.442Z,2.42
2022-12-22T23:17:44.377Z,2.78
2022-12-22T23:20:11.360Z,2.10
2022-12-22T23:22:38.183Z,2.70
2022-12-22T23:25:05.428Z,2.63
2022-12-22T23:27:32.282Z,2.40
2022-12-22T23:29:59.131Z,2.77
2022-12-22T23:32:26.344Z,2.90
2022-12-22T23:34:53.176Z,2.63
2022-12-22T23:37:20.038Z,2.47
2022-12-22T23:39:46.994Z,2.30
2022-12-22T23:42:13.833Z,2.22
2022-12-22T23:44:41.043Z,2.30
2022-12-22T23:47:07.945Z,2.20
2022-12-22T23:49:34.926Z,2.00
2022-12-22T23:52:01.708Z,2.08
2022-12-22T23:54:30.324Z,2.40
2022-12-22T23:56:57.252Z,2.08
2022-12-22T23:59:24.072Z,2.25
